Time;durP1;ratioP1;P1;durP2;ratioP2;P2;SDS_P1;SDS_P2;PMS_P1;PMS_P2;Temp;Humidity;BMP_temperature;BMP_pressure;BME280_temperature;BME280_humidity;BME280_pressure;Samples;Min_cycle;Max_cycle;Signal;HPM_P1;HPM_P2
2021/05/01 00:00:12;;;;;;;50.30;31.77;;;8.50;99.90;;;;;;5013387;28;20049;-74
2021/05/01 00:02:38;;;;;;;48.25;30.67;;;8.50;99.90;;;;;;5032491;28;20025;-74
2021/05/01 00:05:04;;;;;;;46.70;30.23;;;8.50;99.90;;;;;;5030923;28;20068;-74
2021/05/01 00:07:30;;;;;;;46.38;31.08;;;8.40;99.90;;;;;;5013172;28;20068;-74
2021/05/01 00:09:55;;;;;;;47.17;31.17;;;8.40;99.90;;;;;;5030938;28;20067;-74
2021/05/01 00:12:21;;;;;;;46.10;29.95;;;8.50;99.90;;;;;;5012994;28;20075;-74
2021/05/01 00:14:47;;;;;;;45.83;29.10;;;8.50;99.90;;;;;;5031054;28;20471;-74
2021/05/01 00:17:12;;;;;;;44.25;29.02;;;8.50;99.90;;;;;;5030671;28;20030;-74
2021/05/01 00:19:38;;;;;;;43.20;28.38;;;8.50;99.90;;;;;;5030681;28;20022;-74
2021/05/01 00:22:03;;;;;;;42.58;28.92;;;8.50;99.90;;;;;;5030592;28;20028;-74
2021/05/01 00:24:29;;;;;;;43.50;28.77;;;8.50;99.90;;;;;;5012880;28;20050;-74
2021/05/01 00:26:54;;;;;;;44.75;28.17;;;8.60;99.90;;;;;;5030523;28;20445;-74
2021/05/01 00:29:20;;;;;;;40.33;27.15;;;8.50;99.90;;;;;;5030756;28;20112;-74
2021/05/01 00:31:45;;;;;;;42.22;27.52;;;8.60;99.90;;;;;;5030404;28;20087;-74
2021/05/01 00:34:11;;;;;;;43.63;28.35;;;8.50;99.90;;;;;;5030198;28;20116;-74
2021/05/01 00:36:37;;;;;;;44.17;29.73;;;8.50;99.90;;;;;;5012534;28;20483;-74
2021/05/01 00:39:04;;;;;;;43.53;29.30;;;8.50;99.90;;;;;;5030591;28;20049;-74
2021/05/01 00:41:29;;;;;;;46.30;29.25;;;8.40;99.90;;;;;;5030149;28;20596;-74
2021/05/01 00:43:55;;;;;;;43.15;30.05;;;8.40;99.90;;;;;;5012403;28;20068;-74
2021/05/01 00:46:21;;;;;;;44.03;30.00;;;8.40;99.90;;;;;;5030118;28;20022;-73
2021/05/01 00:48:47;;;;;;;47.25;31.15;;;8.40;99.90;;;;;;5012398;28;20112;-74
2021/05/01 00:51:13;;;;;;;42.95;29.55;;;8.50;99.90;;;;;;5030085;28;20030;-73
2021/05/01 00:53:38;;;;;;;46.03;30.92;;;8.50;99.90;;;;;;5030001;28;20080;-73
2021/05/01 00:56:06;;;;;;;48.50;30.50;;;8.50;99.90;;;;;;5012239;28;20031;-74
2021/05/01 00:58:32;;;;;;;47.35;30.40;;;8.50;99.90;;;;;;5029827;28;20037;-73
2021/05/01 01:03:37;;;;;;;49.95;30.73;;;8.50;99.90;;;;;;5030048;28;20022;-73
2021/05/01 01:06:04;;;;;;;48.20;30.55;;;8.40;99.90;;;;;;5029749;28;20021;-73
2021/05/01 01:08:30;;;;;;;47.80;31.10;;;8.40;99.90;;;;;;5029744;28;20104;-73
2021/05/01 01:10:55;;;;;;;54.00;33.67;;;8.30;99.90;;;;;;5012073;28;20121;-73
2021/05/01 01:13:21;;;;;;;53.95;33.47;;;8.30;99.90;;;;;;5011900;28;20023;-74
2021/05/01 01:15:47;;;;;;;51.00;31.58;;;8.30;99.90;;;;;;5029659;28;20029;-74
2021/05/01 01:18:13;;;;;;;53.60;33.85;;;8.30;99.90;;;;;;5029546;28;20078;-73
2021/05/01 01:20:38;;;;;;;48.38;30.67;;;8.20;99.90;;;;;;5011897;28;20040;-74
2021/05/01 01:23:04;;;;;;;49.20;30.88;;;8.30;99.90;;;;;;5029475;28;20162;-74
2021/05/01 01:25:30;;;;;;;49.88;32.53;;;8.30;99.90;;;;;;5011882;28;20116;-74
2021/05/01 01:27:58;;;;;;;49.50;31.85;;;8.30;99.90;;;;;;5029511;28;20030;-73
2021/05/01 01:30:29;;;;;;;52.25;32.20;;;8.30;99.90;;;;;;5011682;28;20037;-73
2021/05/01 01:33:00;;;;;;;51.15;32.30;;;8.30;99.90;;;;;;5028749;28;20032;-73
2021/05/01 01:35:26;;;;;;;47.90;31.73;;;8.30;99.90;;;;;;5029669;28;20021;-73
2021/05/01 01:37:52;;;;;;;55.85;34.05;;;8.30;99.90;;;;;;5029526;28;20025;-73
2021/05/01 01:40:19;;;;;;;49.50;31.88;;;8.30;99.90;;;;;;5029299;28;20049;-73
2021/05/01 01:42:45;;;;;;;46.50;31.23;;;8.30;99.90;;;;;;5029113;28;20029;-73
2021/05/01 01:45:14;;;;;;;52.85;33.92;;;8.30;99.90;;;;;;5011522;28;20026;-73
2021/05/01 01:47:40;;;;;;;54.25;33.97;;;8.30;99.90;;;;;;5029328;28;20041;-73
2021/05/01 01:50:09;;;;;;;52.55;32.38;;;8.40;99.90;;;;;;5011533;28;20037;-73
2021/05/01 01:52:36;;;;;;;52.47;33.85;;;8.30;99.90;;;;;;5029098;28;20030;-73
2021/05/01 01:55:05;;;;;;;50.97;32.03;;;8.40;99.90;;;;;;5029519;28;20051;-74
2021/05/01 01:57:30;;;;;;;52.97;33.95;;;8.40;99.90;;;;;;5011322;28;20105;-73
2021/05/01 01:59:56;;;;;;;54.33;33.63;;;8.40;99.90;;;;;;5011571;28;20414;-73
2021/05/01 02:02:21;;;;;;;55.50;35.33;;;8.40;99.90;;;;;;5011402;28;20403;-73
2021/05/01 02:04:47;;;;;;;51.33;33.55;;;8.40;99.90;;;;;;5029111;28;20532;-73
2021/05/01 02:07:12;;;;;;;51.53;32.92;;;8.40;99.90;;;;;;5011380;28;20053;-74
2021/05/01 02:09:38;;;;;;;55.03;34.80;;;8.50;99.90;;;;;;5029330;28;20029;-73
2021/05/01 02:12:04;;;;;;;50.47;33.00;;;8.50;99.90;;;;;;5029008;28;20034;-73
2021/05/01 02:14:30;;;;;;;54.10;34.78;;;8.50;99.90;;;;;;5011277;28;20029;-73
2021/05/01 02:16:55;;;;;;;50.85;32.45;;;8.50;99.90;;;;;;5029233;28;20053;-73
2021/05/01 02:19:21;;;;;;;52.08;33.17;;;8.50;99.90;;;;;;5011360;28;20018;-73
2021/05/01 02:21:46;;;;;;;51.20;33.70;;;8.50;99.90;;;;;;5028926;28;20390;-73
2021/05/01 02:24:12;;;;;;;47.10;31.48;;;8.50;99.90;;;;;;5028887;28;20490;-73
2021/05/01 02:26:38;;;;;;;49.10;31.10;;;8.60;99.90;;;;;;5028964;28;20483;-73
2021/05/01 02:29:04;;;;;;;50.25;32.63;;;8.60;99.90;;;;;;5028875;28;20028;-73
2021/05/01 02:31:29;;;;;;;50.17;33.17;;;8.60;99.90;;;;;;5028865;28;20104;-73
2021/05/01 02:33:55;;;;;;;48.78;32.28;;;8.50;99.90;;;;;;5028677;28;20057;-73
2021/05/01 02:36:20;;;;;;;49.85;33.15;;;8.50;99.90;;;;;;5029028;28;20060;-73
2021/05/01 02:38:46;;;;;;;48.65;32.00;;;8.50;99.90;;;;;;5011090;28;20029;-73
2021/05/01 02:41:12;;;;;;;52.80;32.20;;;8.50;99.90;;;;;;5011126;28;20018;-73
2021/05/01 02:43:37;;;;;;;50.80;32.05;;;8.50;99.90;;;;;;5031380;28;20030;-73
2021/05/01 02:46:03;;;;;;;46.50;31.27;;;8.60;99.90;;;;;;5032929;28;20026;-73
2021/05/01 02:48:30;;;;;;;50.28;31.80;;;8.50;99.90;;;;;;5032752;28;20443;-73
2021/05/01 02:50:57;;;;;;;47.47;31.65;;;8.50;99.90;;;;;;5032457;28;20197;-73
2021/05/01 02:53:22;;;;;;;44.22;30.42;;;8.50;99.90;;;;;;5014705;28;20095;-73
2021/05/01 02:55:49;;;;;;;46.83;30.42;;;8.50;99.90;;;;;;5014624;28;20025;-73
2021/05/01 02:58:15;;;;;;;44.60;30.85;;;8.50;99.90;;;;;;5032479;28;20025;-73
2021/05/01 03:00:40;;;;;;;45.15;28.90;;;8.50;99.90;;;;;;5032243;28;20030;-73
2021/05/01 03:03:06;;;;;;;47.33;30.63;;;8.40;99.90;;;;;;5032300;28;20022;-74
2021/05/01 03:05:31;;;;;;;45.03;29.15;;;8.40;99.90;;;;;;5014477;28;20022;-73
2021/05/01 03:07:57;;;;;;;42.13;28.60;;;8.30;99.90;;;;;;5014473;28;20520;-73
2021/05/01 03:10:24;;;;;;;43.88;28.90;;;8.30;99.90;;;;;;5032087;28;20496;-73
2021/05/01 03:12:51;;;;;;;39.45;26.48;;;8.30;99.90;;;;;;5032308;28;20026;-73
2021/05/01 03:15:17;;;;;;;42.60;28.88;;;8.30;99.90;;;;;;5014264;28;20391;-73
2021/05/01 03:17:44;;;;;;;43.15;27.40;;;8.40;99.90;;;;;;5014166;28;20461;-73
2021/05/01 03:20:12;;;;;;;45.83;29.95;;;8.40;99.90;;;;;;5032322;28;20445;-73
2021/05/01 03:22:38;;;;;;;45.40;30.55;;;8.30;99.90;;;;;;5031985;28;20013;-73
2021/05/01 03:25:06;;;;;;;42.75;29.48;;;8.40;99.90;;;;;;5014169;28;20095;-73
2021/05/01 03:27:32;;;;;;;47.28;29.65;;;8.30;99.90;;;;;;5031292;28;20041;-73
2021/05/01 03:29:57;;;;;;;41.90;28.77;;;8.40;99.90;;;;;;5031977;28;20033;-73
2021/05/01 03:34:57;;;;;;;45.08;30.08;;;8.30;99.90;;;;;;5055712;22;20049;-75
2021/05/01 03:37:22;;;;;;;43.65;28.08;;;8.30;99.90;;;;;;5031568;28;20128;-75
2021/05/01 03:39:48;;;;;;;47.75;31.38;;;8.30;99.90;;;;;;5031733;28;20456;-75
2021/05/01 03:42:14;;;;;;;47.80;30.23;;;8.20;99.90;;;;;;5014272;28;20056;-75
2021/05/01 03:44:39;;;;;;;44.25;28.35;;;8.20;99.90;;;;;;5031887;28;20053;-75
2021/05/01 03:47:05;;;;;;;44.78;29.50;;;8.20;99.90;;;;;;5031848;28;20040;-75
2021/05/01 03:49:31;;;;;;;47.58;29.33;;;8.30;99.90;;;;;;5031993;28;20029;-75
2021/05/01 03:51:56;;;;;;;49.97;32.35;;;8.20;99.90;;;;;;5031368;28;20057;-75
2021/05/01 03:54:22;;;;;;;46.92;30.42;;;8.30;99.90;;;;;;5012593;28;20025;-75
2021/05/01 03:56:47;;;;;;;47.55;31.02;;;8.20;99.90;;;;;;5031106;28;20064;-75
2021/05/01 03:59:13;;;;;;;45.92;30.20;;;8.20;99.90;;;;;;5031204;28;20049;-75
2021/05/01 04:01:39;;;;;;;46.88;31.40;;;8.20;99.90;;;;;;5013650;28;20026;-75
2021/05/01 04:04:04;;;;;;;45.33;29.35;;;8.20;99.90;;;;;;5031140;28;20033;-75
2021/05/01 04:06:30;;;;;;;46.17;30.70;;;8.20;99.90;;;;;;5013516;28;20021;-75
2021/05/01 04:08:56;;;;;;;45.85;29.30;;;8.20;99.90;;;;;;5031076;28;20035;-75
2021/05/01 04:11:22;;;;;;;45.38;28.88;;;8.20;99.90;;;;;;5013314;28;20025;-75
2021/05/01 04:13:47;;;;;;;46.10;30.65;;;8.20;99.90;;;;;;5013266;28;20535;-75
2021/05/01 04:16:17;;;;;;;47.20;30.10;;;8.20;99.90;;;;;;5013225;28;20611;-75
2021/05/01 04:18:45;;;;;;;46.90;31.52;;;8.20;99.90;;;;;;5030853;28;20563;-75
2021/05/01 04:21:10;;;;;;;43.78;28.63;;;8.20;99.90;;;;;;5030880;28;20479;-75
2021/05/01 04:23:36;;;;;;;46.58;30.20;;;8.20;99.90;;;;;;5013028;28;20025;-76
2021/05/01 04:26:02;;;;;;;46.83;31.55;;;8.20;99.90;;;;;;5030756;28;20486;-75
2021/05/01 04:28:28;;;;;;;50.83;31.60;;;8.20;99.90;;;;;;5031030;28;20036;-75
2021/05/01 04:30:55;;;;;;;45.10;30.58;;;8.10;99.90;;;;;;5012945;28;20120;-75
2021/05/01 04:33:21;;;;;;;46.50;30.00;;;8.10;99.90;;;;;;5012718;28;20037;-75
2021/05/01 04:35:46;;;;;;;51.10;32.17;;;8.00;99.90;;;;;;5030620;28;20439;-75
2021/05/01 04:38:12;;;;;;;48.08;31.95;;;8.10;99.90;;;;;;5012833;28;20021;-75
2021/05/01 04:40:38;;;;;;;48.30;31.15;;;8.10;99.90;;;;;;5030455;28;20053;-75
2021/05/01 04:43:06;;;;;;;53.25;32.53;;;8.10;99.90;;;;;;5012732;28;20026;-75
2021/05/01 04:45:31;;;;;;;51.22;33.03;;;8.20;99.90;;;;;;5012692;28;20396;-75
2021/05/01 04:47:57;;;;;;;49.42;32.30;;;8.30;99.90;;;;;;5030354;28;20131;-76
2021/05/01 04:50:23;;;;;;;46.47;31.50;;;8.30;99.90;;;;;;5030330;28;20070;-75
2021/05/01 04:52:48;;;;;;;48.03;31.55;;;8.50;99.90;;;;;;5030514;28;20034;-75
2021/05/01 04:55:14;;;;;;;48.55;31.52;;;8.60;99.90;;;;;;5012559;28;20398;-75
2021/05/01 04:57:44;;;;;;;51.30;32.42;;;8.70;99.90;;;;;;5030144;28;20474;-75
2021/05/01 05:00:12;;;;;;;49.78;31.88;;;8.80;99.90;;;;;;5030463;28;20022;-75
2021/05/01 05:02:38;;;;;;;47.53;31.05;;;8.90;99.90;;;;;;5029982;28;20025;-75
2021/05/01 05:05:06;;;;;;;49.20;31.27;;;9.00;99.90;;;;;;5012257;28;20030;-75
2021/05/01 05:07:32;;;;;;;47.33;31.08;;;9.20;99.90;;;;;;5012779;28;20057;-75
2021/05/01 05:09:58;;;;;;;48.70;31.70;;;9.20;99.90;;;;;;5029999;28;20540;-75
2021/05/01 05:12:23;;;;;;;47.28;30.60;;;9.20;99.90;;;;;;5012285;28;20387;-75
2021/05/01 05:14:49;;;;;;;44.25;30.40;;;9.30;99.90;;;;;;5029857;28;20033;-75
2021/05/01 05:17:15;;;;;;;42.10;28.02;;;9.30;99.90;;;;;;5029804;28;20050;-75
2021/05/01 05:19:40;;;;;;;46.47;31.17;;;9.40;99.90;;;;;;5012119;28;20022;-75
2021/05/01 05:22:06;;;;;;;42.17;29.27;;;9.60;99.90;;;;;;5012092;28;20486;-75
2021/05/01 05:24:32;;;;;;;41.95;27.88;;;9.70;99.90;;;;;;5012048;28;20018;-75
2021/05/01 05:26:58;;;;;;;41.55;28.65;;;9.80;99.90;;;;;;5029658;28;20069;-75
2021/05/01 05:29:23;;;;;;;42.80;29.20;;;9.90;99.90;;;;;;5029721;28;20021;-75
2021/05/01 05:31:49;;;;;;;45.58;29.48;;;9.90;99.90;;;;;;5011898;28;20025;-75
2021/05/01 05:34:14;;;;;;;40.65;27.77;;;10.00;99.90;;;;;;5011662;28;20117;-75
2021/05/01 05:36:40;;;;;;;44.47;29.55;;;10.10;99.90;;;;;;5029611;28;20380;-75
2021/05/01 05:39:07;;;;;;;39.78;27.20;;;10.20;99.90;;;;;;5011894;28;20140;-75
2021/05/01 05:41:33;;;;;;;41.65;27.30;;;10.40;99.90;;;;;;5029500;28;20022;-75
2021/05/01 05:43:59;;;;;;;37.38;25.98;;;10.40;99.90;;;;;;5029689;28;20383;-75
2021/05/01 05:46:26;;;;;;;33.70;24.17;;;10.40;99.90;;;;;;5029587;28;20017;-75
2021/05/01 05:48:52;;;;;;;37.30;25.65;;;10.60;99.90;;;;;;5011672;28;20376;-75
2021/05/01 05:51:18;;;;;;;36.88;25.80;;;10.80;99.90;;;;;;5029497;28;20087;-75
2021/05/01 05:53:43;;;;;;;36.95;25.45;;;11.00;99.90;;;;;;5029384;28;20447;-75
2021/05/01 05:56:09;;;;;;;34.13;24.55;;;11.20;99.90;;;;;;5011720;28;20025;-75
2021/05/01 05:58:34;;;;;;;33.88;24.52;;;11.20;99.90;;;;;;5029267;28;20082;-75
2021/05/01 06:01:00;;;;;;;35.45;24.92;;;11.20;99.90;;;;;;5011907;28;20076;-74
2021/05/01 06:03:28;;;;;;;34.88;24.02;;;11.20;99.90;;;;;;5029832;28;20021;-75
2021/05/01 06:06:03;;;;;;;31.27;22.92;;;11.20;99.90;;;;;;5029686;28;20045;-75
2021/05/01 06:08:31;;;;;;;30.63;22.52;;;11.30;99.90;;;;;;5029543;28;20057;-75
2021/05/01 06:10:58;;;;;;;33.88;23.52;;;11.60;99.90;;;;;;5011497;28;20025;-75
2021/05/01 06:13:27;;;;;;;30.10;21.35;;;12.00;99.90;;;;;;5011597;28;20028;-75
2021/05/01 06:15:56;;;;;;;29.25;22.27;;;12.30;99.90;;;;;;5029236;28;20022;-75
2021/05/01 06:18:24;;;;;;;28.00;20.55;;;12.60;99.90;;;;;;5031584;28;20034;-75
2021/05/01 06:20:50;;;;;;;26.73;20.67;;;12.90;99.90;;;;;;5033117;28;20056;-75
2021/05/01 06:23:17;;;;;;;31.58;22.55;;;13.10;99.90;;;;;;5015305;28;20022;-75
2021/05/01 06:25:44;;;;;;;29.67;21.92;;;13.20;99.90;;;;;;5015270;28;20029;-75
2021/05/01 06:28:10;;;;;;;27.77;21.85;;;13.20;99.90;;;;;;5033072;28;20079;-75
2021/05/01 06:30:39;;;;;;;27.92;20.67;;;13.20;99.90;;;;;;5015272;28;20434;-75
2021/05/01 06:33:10;;;;;;;27.80;20.90;;;13.20;99.90;;;;;;5015031;28;20033;-75
2021/05/01 06:35:39;;;;;;;26.65;20.38;;;13.10;99.90;;;;;;5033188;28;20490;-75
2021/05/01 06:38:05;;;;;;;27.40;20.88;;;13.00;99.90;;;;;;5032689;28;20033;-75
2021/05/01 06:40:43;;;;;;;31.08;22.98;;;12.90;99.90;;;;;;5032748;28;20021;-75
2021/05/01 06:43:32;;;;;;;31.40;23.45;;;12.90;99.90;;;;;;5032606;28;20052;-74
2021/05/01 06:46:01;;;;;;;29.92;21.92;;;12.80;99.90;;;;;;5032894;28;20475;-75
2021/05/01 06:48:29;;;;;;;28.38;21.35;;;12.80;99.90;;;;;;5014832;28;20033;-75
2021/05/01 06:51:00;;;;;;;30.70;23.30;;;12.90;99.90;;;;;;5032432;28;20029;-75
2021/05/01 06:53:30;;;;;;;31.77;22.40;;;12.90;99.90;;;;;;5032529;28;20104;-74
2021/05/01 06:56:05;;;;;;;33.10;23.85;;;13.00;99.90;;;;;;5032507;28;20032;-75
2021/05/01 06:58:33;;;;;;;29.60;21.15;;;13.00;99.90;;;;;;5032392;28;20036;-75
2021/05/01 07:01:03;;;;;;;27.48;21.08;;;13.10;99.90;;;;;;5015184;28;20079;-75
2021/05/01 07:03:31;;;;;;;29.08;20.30;;;13.20;99.90;;;;;;5014532;28;20390;-74
2021/05/01 07:05:59;;;;;;;30.08;21.80;;;13.30;99.90;;;;;;5032569;28;20383;-76
2021/05/01 07:08:25;;;;;;;30.35;22.83;;;13.40;99.90;;;;;;5032435;28;20025;-75
2021/05/01 07:10:51;;;;;;;28.35;21.45;;;13.60;99.90;;;;;;5014469;28;20394;-75
2021/05/01 07:13:17;;;;;;;28.77;21.67;;;13.80;99.90;;;;;;5031987;28;20021;-75
2021/05/01 07:15:44;;;;;;;29.20;21.17;;;13.80;99.90;;;;;;5032087;28;20049;-75
2021/05/01 07:18:10;;;;;;;26.05;20.30;;;14.00;99.90;;;;;;5014307;28;20049;-75
2021/05/01 07:20:37;;;;;;;29.63;21.48;;;14.30;99.90;;;;;;5032511;28;20047;-75
2021/05/01 07:23:03;;;;;;;26.67;19.92;;;14.40;99.90;;;;;;5014173;28;20030;-75
2021/05/01 07:25:28;;;;;;;28.17;20.83;;;14.70;99.90;;;;;;5031835;28;20030;-75
2021/05/01 07:28:04;;;;;;;27.73;21.63;;;15.00;99.90;;;;;;5014139;28;20025;-75
2021/05/01 07:30:36;;;;;;;25.00;19.45;;;15.40;99.90;;;;;;5012843;28;20022;-75
2021/05/01 07:33:16;;;;;;;25.85;20.27;;;15.80;99.90;;;;;;5013894;28;20100;-76
2021/05/01 07:35:45;;;;;;;25.80;20.08;;;16.10;99.90;;;;;;5014013;28;20394;-76
2021/05/01 07:38:12;;;;;;;26.42;20.67;;;16.10;99.90;;;;;;5013931;28;20025;-75
2021/05/01 07:40:38;;;;;;;25.20;20.08;;;16.50;99.90;;;;;;5031650;28;20024;-75
2021/05/01 07:43:06;;;;;;;25.17;19.17;;;17.00;99.90;;;;;;5013842;28;20017;-75
2021/05/01 07:45:34;;;;;;;25.20;19.27;;;17.30;99.90;;;;;;5013819;28;20057;-75
2021/05/01 07:48:03;;;;;;;25.10;19.17;;;17.60;99.90;;;;;;5031510;28;20473;-75
2021/05/01 07:50:30;;;;;;;21.88;18.48;;;17.80;99.90;;;;;;5031523;28;20045;-75
2021/05/01 07:52:55;;;;;;;24.35;18.52;;;17.90;99.90;;;;;;5031641;28;20036;-75
2021/05/01 07:55:22;;;;;;;20.33;17.00;;;17.90;99.90;;;;;;5013643;28;20029;-75
2021/05/01 07:57:48;;;;;;;21.23;16.80;;;17.90;99.90;;;;;;5013343;28;20031;-75
2021/05/01 08:00:18;;;;;;;20.60;17.05;;;18.10;99.90;;;;;;5013505;28;20335;-75
2021/05/01 08:02:44;;;;;;;16.98;14.35;;;18.00;99.90;;;;;;5013362;28;20037;-74
2021/05/01 08:05:10;;;;;;;18.35;14.75;;;17.80;99.90;;;;;;5031167;28;20022;-75
2021/05/01 08:07:37;;;;;;;18.00;15.70;;;17.80;99.90;;;;;;5013364;28;20037;-75
2021/05/01 08:10:04;;;;;;;18.80;14.93;;;17.80;99.90;;;;;;5031063;28;20176;-74
2021/05/01 08:12:29;;;;;;;16.35;13.95;;;18.10;98.70;;;;;;5031002;28;20026;-75
2021/05/01 08:14:55;;;;;;;16.92;13.32;;;18.40;96.40;;;;;;5013168;28;20492;-75
2021/05/01 08:17:20;;;;;;;17.98;14.23;;;18.10;96.00;;;;;;5030856;28;20052;-75
2021/05/01 08:19:46;;;;;;;15.70;13.82;;;18.20;95.40;;;;;;5030915;28;20482;-75
2021/05/01 08:22:11;;;;;;;16.25;14.05;;;18.50;94.50;;;;;;5031106;28;20032;-75
2021/05/01 08:24:37;;;;;;;19.02;14.15;;;18.70;93.60;;;;;;5013084;28;20024;-74
2021/05/01 08:27:03;;;;;;;16.48;13.90;;;18.90;92.40;;;;;;5013009;28;20049;-75
2021/05/01 08:29:28;;;;;;;15.05;12.45;;;19.00;93.20;;;;;;5030762;28;20036;-74
2021/05/01 08:31:54;;;;;;;15.00;12.38;;;19.20;89.30;;;;;;5030687;28;20131;-74
2021/05/01 08:34:19;;;;;;;16.70;12.13;;;19.50;86.90;;;;;;5030540;28;20029;-74
2021/05/01 08:36:45;;;;;;;13.55;11.35;;;19.60;86.60;;;;;;5030645;28;20398;-75
2021/05/01 08:39:11;;;;;;;13.02;10.57;;;19.80;87.90;;;;;;5030485;28;20025;-75
2021/05/01 08:41:36;;;;;;;12.65;10.45;;;20.10;86.60;;;;;;5012622;28;20100;-75
2021/05/01 08:44:08;;;;;;;13.68;10.57;;;20.40;90.20;;;;;;5030417;28;20022;-75
2021/05/01 08:46:34;;;;;;;12.43;11.13;;;20.60;82.50;;;;;;5030625;28;20390;-75
2021/05/01 08:49:02;;;;;;;14.25;11.23;;;20.90;79.00;;;;;;5012725;28;20025;-75
2021/05/01 08:51:28;;;;;;;12.80;10.75;;;21.40;74.00;;;;;;5030293;28;20084;-75
2021/05/01 08:53:53;;;;;;;13.50;11.27;;;21.90;71.80;;;;;;5030202;28;20064;-75
2021/05/01 08:56:19;;;;;;;12.43;9.82;;;21.90;67.60;;;;;;5030247;28;20030;-75
2021/05/01 08:58:47;;;;;;;11.25;10.05;;;22.00;66.50;;;;;;5012471;28;20045;-75
2021/05/01 09:01:14;;;;;;;13.48;12.07;;;22.50;67.30;;;;;;5030168;28;20017;-75
2021/05/01 09:03:41;;;;;;;11.70;10.35;;;22.10;64.90;;;;;;5012382;28;20028;-75
2021/05/01 09:06:08;;;;;;;11.20;10.00;;;22.00;64.80;;;;;;5012433;28;20021;-74
2021/05/01 09:08:40;;;;;;;11.35;10.15;;;21.90;65.30;;;;;;5030034;28;20025;-75
2021/05/01 09:11:06;;;;;;;13.98;11.95;;;21.30;66.20;;;;;;5012489;28;20120;-75
2021/05/01 09:13:31;;;;;;;13.43;11.73;;;21.60;68.30;;;;;;5030629;28;20026;-75
2021/05/01 09:16:03;;;;;;;12.30;11.00;;;22.30;66.60;;;;;;5012718;28;20031;-75
2021/05/01 09:18:51;;;;;;;13.00;11.65;;;22.80;65.60;;;;;;5031859;28;20044;-76
2021/05/01 09:21:22;;;;;;;12.10;10.88;;;23.10;61.30;;;;;;5031439;28;20142;-75
2021/05/01 09:23:48;;;;;;;13.18;11.75;;;23.10;62.60;;;;;;5012232;28;20121;-75
2021/05/01 09:26:18;;;;;;;13.18;11.25;;;22.90;62.30;;;;;;5012422;28;20049;-75
2021/05/01 09:28:48;;;;;;;13.88;12.40;;;22.60;62.00;;;;;;5012549;28;20055;-75
2021/05/01 09:31:18;;;;;;;12.18;10.95;;;22.00;64.60;;;;;;5012390;28;20025;-75
2021/05/01 09:33:49;;;;;;;13.13;11.82;;;21.10;66.90;;;;;;5059338;22;20445;-73
2021/05/01 09:36:17;;;;;;;12.98;11.52;;;20.50;68.80;;;;;;5049985;28;20108;-73
2021/05/01 09:38:45;;;;;;;12.32;10.45;;;20.10;70.00;;;;;;5049980;28;20021;-74
2021/05/01 09:41:25;;;;;;;12.95;11.65;;;20.00;69.40;;;;;;5049513;28;20021;-74
2021/05/01 09:44:25;;;;;;;13.20;11.40;;;19.50;71.40;;;;;;5049468;28;20063;-74
2021/05/01 09:46:53;;;;;;;12.82;11.10;;;19.50;73.40;;;;;;5028856;28;20409;-74
2021/05/01 09:49:25;;;;;;;12.75;10.85;;;19.00;74.30;;;;;;5049360;28;20438;-74
2021/05/01 09:51:53;;;;;;;12.38;10.73;;;18.90;76.30;;;;;;5048993;28;20032;-74
2021/05/01 09:54:33;;;;;;;12.88;11.40;;;18.90;79.20;;;;;;5049177;28;20483;-74
2021/05/01 09:57:01;;;;;;;12.35;11.05;;;19.00;78.60;;;;;;5049380;28;20478;-74
2021/05/01 09:59:46;;;;;;;12.00;10.23;;;19.10;75.90;;;;;;5049386;28;20021;-74
2021/05/01 10:02:17;;;;;;;12.93;10.73;;;19.30;76.40;;;;;;5049296;28;20032;-73
2021/05/01 10:05:06;;;;;;;13.65;12.23;;;19.50;75.10;;;;;;5047856;28;20021;-74
2021/05/01 10:07:33;;;;;;;12.60;11.25;;;19.30;74.40;;;;;;5049015;28;20029;-75
2021/05/01 10:09:58;;;;;;;11.65;10.32;;;19.70;76.80;;;;;;5049142;28;20039;-74
2021/05/01 10:12:40;;;;;;;11.95;10.50;;;20.20;76.20;;;;;;5047794;28;20041;-74
2021/05/01 10:15:16;;;;;;;10.30;8.68;;;20.90;68.50;;;;;;5047662;28;20025;-75
2021/05/01 10:17:45;;;;;;;9.35;8.35;;;21.70;65.60;;;;;;5047785;28;20017;-75
2021/05/01 10:20:11;;;;;;;8.68;7.78;;;22.30;62.70;;;;;;5047709;28;20452;-75
2021/05/01 10:22:42;;;;;;;9.40;8.25;;;22.90;61.40;;;;;;5049031;28;20017;-74
2021/05/01 10:25:09;;;;;;;9.18;8.18;;;23.60;58.10;;;;;;5049031;28;20032;-74
2021/05/01 10:27:43;;;;;;;6.53;5.90;;;24.10;54.90;;;;;;5049054;28;20037;-75
2021/05/01 10:30:15;;;;;;;8.70;7.80;;;24.60;53.80;;;;;;5049482;28;20021;-74
2021/05/01 10:32:43;;;;;;;9.30;8.30;;;25.10;52.80;;;;;;5049349;28;20029;-74
2021/05/01 10:35:10;;;;;;;9.60;8.60;;;24.70;54.00;;;;;;5047510;28;20037;-74
2021/05/01 10:37:43;;;;;;;9.55;8.55;;;24.60;52.80;;;;;;5048840;28;20051;-74
2021/05/01 10:40:10;;;;;;;9.07;8.07;;;24.00;52.60;;;;;;5048897;28;20487;-74
2021/05/01 10:42:35;;;;;;;9.70;8.50;;;23.30;54.10;;;;;;5048712;28;20025;-74
2021/05/01 10:45:02;;;;;;;11.05;9.80;;;23.30;54.50;;;;;;5048721;28;20029;-74
2021/05/01 10:47:28;;;;;;;11.65;10.27;;;22.90;55.80;;;;;;5047508;28;20033;-74
2021/05/01 10:49:55;;;;;;;12.35;11.05;;;22.20;57.60;;;;;;5048635;28;20402;-74
2021/05/01 10:52:22;;;;;;;11.80;10.35;;;22.30;57.60;;;;;;5048733;28;20044;-74
2021/05/01 10:55:03;;;;;;;10.60;9.02;;;22.90;57.20;;;;;;5048658;28;20025;-75
2021/05/01 10:57:30;;;;;;;10.88;9.70;;;23.10;55.80;;;;;;5048608;28;20078;-74
2021/05/01 11:00:03;;;;;;;11.73;10.55;;;23.40;55.30;;;;;;5048923;28;20091;-74
2021/05/01 11:02:35;;;;;;;11.80;10.65;;;23.60;53.50;;;;;;5048582;28;20017;-74
2021/05/01 11:05:01;;;;;;;12.05;10.68;;;23.80;53.50;;;;;;5051633;28;20455;-74
2021/05/01 11:07:40;;;;;;;9.00;8.10;;;23.70;53.80;;;;;;5052158;28;20044;-74
2021/05/01 11:10:07;;;;;;;11.30;10.10;;;23.80;55.70;;;;;;5050810;28;20046;-74
2021/05/01 11:12:38;;;;;;;12.10;10.82;;;23.30;54.40;;;;;;5052371;28;20025;-74
2021/05/01 11:15:06;;;;;;;11.68;10.48;;;22.40;56.00;;;;;;5051925;28;20104;-74
2021/05/01 11:17:32;;;;;;;12.38;10.88;;;22.40;57.40;;;;;;5050689;28;20075;-74
2021/05/01 11:20:13;;;;;;;13.00;11.13;;;22.60;57.90;;;;;;5052042;28;20025;-74
2021/05/01 11:22:45;;;;;;;13.35;11.88;;;22.40;57.50;;;;;;5052069;28;20025;-74
2021/05/01 11:25:14;;;;;;;14.35;12.10;;;22.10;58.40;;;;;;5052058;28;20021;-74
2021/05/01 11:27:47;;;;;;;11.50;10.30;;;21.90;60.80;;;;;;5050709;28;20040;-74
2021/05/01 11:30:16;;;;;;;13.38;11.77;;;21.80;61.50;;;;;;5050724;28;20031;-75
2021/05/01 11:32:42;;;;;;;12.00;10.80;;;21.70;59.70;;;;;;5050548;28;20512;-74
2021/05/01 11:35:09;;;;;;;13.63;12.20;;;21.40;60.40;;;;;;5052128;28;20040;-75
2021/05/01 11:37:43;;;;;;;11.82;10.63;;;21.10;61.80;;;;;;5052040;28;20025;-74
2021/05/01 11:40:11;;;;;;;13.98;12.27;;;20.70;63.80;;;;;;5051784;28;20025;-74
2021/05/01 11:42:38;;;;;;;14.13;12.50;;;20.60;63.10;;;;;;5051603;28;20028;-74
2021/05/01 11:45:23;;;;;;;14.98;13.18;;;20.60;65.40;;;;;;5050763;28;20144;-74
2021/05/01 11:47:51;;;;;;;15.18;13.13;;;20.50;64.60;;;;;;5051731;28;20021;-75
2021/05/01 11:50:19;;;;;;;15.23;12.93;;;20.40;65.40;;;;;;5050202;28;20050;-74
2021/05/01 11:52:56;;;;;;;16.27;14.57;;;20.20;65.60;;;;;;5051595;28;20025;-74
2021/05/01 11:55:29;;;;;;;17.20;13.77;;;19.80;66.80;;;;;;5049908;28;20163;-73
2021/05/01 11:57:57;;;;;;;14.35;12.82;;;19.70;67.50;;;;;;5050213;28;20452;-74
2021/05/01 12:01:09;;;;;;;17.40;13.43;;;19.70;68.20;;;;;;5050056;28;20392;-74
2021/05/01 12:03:35;;;;;;;15.90;13.40;;;20.40;64.30;;;;;;5005553;28;20035;-73
2021/05/01 12:06:07;;;;;;;15.20;12.68;;;20.90;63.20;;;;;;5051098;28;20025;-73
2021/05/01 12:08:34;;;;;;;16.10;13.70;;;21.20;62.30;;;;;;5049883;28;20028;-73
2021/05/01 12:11:04;;;;;;;15.32;13.60;;;21.40;62.80;;;;;;5049822;28;20032;-74
2021/05/01 12:13:34;;;;;;;15.60;13.90;;;21.20;62.30;;;;;;5050964;28;20025;-74
2021/05/01 12:16:00;;;;;;;15.35;13.45;;;20.90;60.90;;;;;;5049800;28;20025;-74
2021/05/01 12:18:46;;;;;;;14.65;12.85;;;20.70;62.00;;;;;;5049698;28;20029;-73
2021/05/01 12:21:19;;;;;;;17.30;14.05;;;21.20;62.40;;;;;;5051195;28;20096;-74
2021/05/01 12:23:44;;;;;;;17.23;14.00;;;21.80;60.80;;;;;;5050623;28;20543;-73
2021/05/01 12:26:33;;;;;;;17.13;14.80;;;22.40;58.80;;;;;;5051098;28;20028;-73
2021/05/01 12:29:17;;;;;;;17.25;14.27;;;22.70;57.60;;;;;;5049428;28;20039;-73
2021/05/01 12:31:44;;;;;;;14.82;13.23;;;23.10;55.80;;;;;;5050700;28;20100;-74
2021/05/01 12:34:10;;;;;;;14.90;13.20;;;23.20;56.10;;;;;;5050299;28;20051;-73
2021/05/01 12:36:41;;;;;;;17.05;14.90;;;23.30;56.00;;;;;;5050405;28;20025;-74
2021/05/01 12:39:09;;;;;;;16.58;14.77;;;22.90;55.90;;;;;;5050404;28;20529;-74
2021/05/01 12:41:36;;;;;;;17.42;15.52;;;22.40;57.00;;;;;;5050419;28;20429;-73